createdAt,value
2017-12-25T00:00:21.252Z,3.65
2017-12-25T00:02:47.523Z,3.58
2017-12-25T00:05:13.709Z,3.20
2017-12-25T00:07:39.855Z,3.47
2017-12-25T00:10:06.708Z,3.40
2017-12-25T00:12:32.837Z,3.55
2017-12-25T00:14:58.949Z,3.50
2017-12-25T00:17:25.067Z,3.62
2017-12-25T00:19:51.284Z,3.00
2017-12-25T00:22:18.128Z,3.08
2017-12-25T00:24:44.247Z,3.55
2017-12-25T00:27:10.331Z,5.95
2017-12-25T00:29:37.242Z,5.25
2017-12-25T00:32:03.373Z,4.78
2017-12-25T00:34:29.474Z,3.83
2017-12-25T00:36:56.321Z,3.92
2017-12-25T00:39:23.303Z,4.05
2017-12-25T00:41:50.152Z,3.35
2017-12-25T00:44:16.322Z,3.67
2017-12-25T00:46:42.440Z,4.75
2017-12-25T00:49:09.308Z,3.70
2017-12-25T00:51:35.488Z,3.80
2017-12-25T00:54:01.595Z,3.70
2017-12-25T00:56:27.699Z,4.15
2017-12-25T00:58:54.551Z,3.25
2017-12-25T01:01:20.652Z,4.20
2017-12-25T01:03:46.899Z,3.30
2017-12-25T01:06:13.062Z,3.42
2017-12-25T01:08:39.956Z,4.20
2017-12-25T01:11:06.072Z,3.55
2017-12-25T01:13:32.181Z,3.87
2017-12-25T01:15:58.287Z,3.55
2017-12-25T01:18:24.416Z,2.87
2017-12-25T01:20:50.519Z,2.67
2017-12-25T01:23:16.623Z,2.30
2017-12-25T01:25:42.885Z,2.53
2017-12-25T01:28:09.019Z,2.40
2017-12-25T01:30:35.215Z,2.22
2017-12-25T01:33:01.420Z,2.25
2017-12-25T01:35:27.779Z,2.10
2017-12-25T01:37:54.128Z,2.35
2017-12-25T01:40:20.598Z,1.65
2017-12-25T01:42:46.905Z,2.00
2017-12-25T01:45:13.226Z,2.22
2017-12-25T01:47:39.619Z,2.12
2017-12-25T01:50:05.947Z,2.10
2017-12-25T01:52:34.107Z,2.08
2017-12-25T01:55:00.462Z,1.73
2017-12-25T01:57:26.797Z,1.62
2017-12-25T02:22:45.197Z,2.30
2017-12-25T02:25:11.570Z,2.45
2017-12-25T02:27:37.931Z,2.03
2017-12-25T02:30:04.250Z,2.35
2017-12-25T02:32:30.584Z,2.95
2017-12-25T02:34:56.934Z,1.90
2017-12-25T02:37:24.016Z,2.10
2017-12-25T02:39:50.313Z,2.30
2017-12-25T02:42:16.643Z,2.50
2017-12-25T02:44:42.956Z,2.55
2017-12-25T02:47:09.311Z,2.58
2017-12-25T02:49:35.658Z,2.85
2017-12-25T02:52:01.965Z,2.58
2017-12-25T02:54:28.311Z,2.78
2017-12-25T02:56:54.624Z,2.70
2017-12-25T02:59:20.944Z,2.67
2017-12-25T03:01:47.971Z,2.67
2017-12-25T03:04:15.092Z,3.15
2017-12-25T03:06:41.459Z,3.15
2017-12-25T03:09:07.841Z,3.05
2017-12-25T03:11:34.333Z,2.80
2017-12-25T03:14:00.845Z,2.90
2017-12-25T03:16:27.300Z,3.40
2017-12-25T03:18:54.371Z,3.10
2017-12-25T03:21:20.684Z,2.62
2017-12-25T03:23:47.015Z,3.17
2017-12-25T03:26:13.332Z,2.75
2017-12-25T03:28:39.676Z,3.08
2017-12-25T03:31:06.738Z,3.30
2017-12-25T03:33:33.438Z,3.40
2017-12-25T03:35:59.768Z,3.25
2017-12-25T03:38:26.128Z,2.92
2017-12-25T03:40:52.435Z,2.45
2017-12-25T03:43:18.780Z,3.10
2017-12-25T03:45:45.154Z,3.00
2017-12-25T03:48:11.451Z,3.30
2017-12-25T03:50:37.799Z,3.03
2017-12-25T03:53:04.154Z,2.95
2017-12-25T03:55:30.489Z,2.70
2017-12-25T03:57:57.555Z,3.47
2017-12-25T04:00:23.838Z,3.25
2017-12-25T04:02:50.172Z,3.50
2017-12-25T04:05:16.509Z,3.53
2017-12-25T04:07:42.820Z,3.17
2017-12-25T04:10:09.120Z,3.17
2017-12-25T04:12:35.471Z,3.40
2017-12-25T04:15:01.804Z,3.58
2017-12-25T04:17:28.301Z,3.33
2017-12-25T04:19:54.634Z,3.35
2017-12-25T04:22:20.956Z,3.53
2017-12-25T04:24:47.295Z,3.40
2017-12-25T04:27:13.609Z,3.80
2017-12-25T04:29:40.043Z,3.80
2017-12-25T04:32:07.091Z,4.15
2017-12-25T04:34:33.547Z,4.10
2017-12-25T04:36:59.832Z,3.45
2017-12-25T04:39:26.215Z,4.55
2017-12-25T04:41:53.320Z,3.65
2017-12-25T04:44:19.613Z,4.28
2017-12-25T04:46:45.998Z,4.25
2017-12-25T04:49:13.304Z,4.40
2017-12-25T04:51:40.312Z,3.25
2017-12-25T04:54:07.506Z,4.47
2017-12-25T04:56:33.829Z,3.42
2017-12-25T04:59:00.242Z,3.80
2017-12-25T05:01:26.556Z,3.15
2017-12-25T05:03:52.989Z,3.85
2017-12-25T05:06:19.300Z,3.40
2017-12-25T05:08:45.600Z,3.28
2017-12-25T05:11:11.879Z,3.15
2017-12-25T05:13:38.295Z,3.25
2017-12-25T05:16:04.643Z,3.10
2017-12-25T05:18:30.960Z,2.75
2017-12-25T05:20:57.263Z,1.60
2017-12-25T05:23:23.591Z,2.33
2017-12-25T05:25:49.917Z,2.75
2017-12-25T05:28:16.258Z,2.37
2017-12-25T05:30:43.344Z,2.28
2017-12-25T05:33:09.666Z,2.50
2017-12-25T05:35:36.402Z,2.00
2017-12-25T05:38:02.577Z,2.12
2017-12-25T05:40:28.926Z,2.17
2017-12-25T05:42:55.299Z,1.52
2017-12-25T05:45:21.626Z,1.80
2017-12-25T05:47:47.970Z,1.48
2017-12-25T05:50:14.413Z,1.58
2017-12-25T05:52:40.737Z,1.50
2017-12-25T05:55:07.046Z,1.50
2017-12-25T05:57:33.353Z,2.12
2017-12-25T06:00:01.965Z,1.70
2017-12-25T06:02:29.013Z,1.80
2017-12-25T06:04:55.133Z,2.00
2017-12-25T06:07:22.015Z,2.40
2017-12-25T06:09:48.120Z,2.70
2017-12-25T06:12:15.359Z,2.15
2017-12-25T06:14:41.485Z,2.58
2017-12-25T06:17:07.591Z,3.15
2017-12-25T06:19:33.701Z,3.35
2017-12-25T06:22:00.570Z,3.30
2017-12-25T06:24:26.709Z,2.80
2017-12-25T06:26:52.833Z,3.90
2017-12-25T06:29:19.688Z,3.67
2017-12-25T06:31:46.577Z,3.75
2017-12-25T06:34:12.687Z,3.80
2017-12-25T06:36:39.572Z,3.70
2017-12-25T06:39:06.144Z,3.28
2017-12-25T06:41:32.286Z,3.20
2017-12-25T06:43:58.492Z,4.00
2017-12-25T06:46:24.615Z,3.65
2017-12-25T06:48:50.748Z,3.67
2017-12-25T06:51:16.861Z,3.33
2017-12-25T06:53:43.049Z,3.10
2017-12-25T06:56:09.185Z,3.28
2017-12-25T06:58:35.357Z,2.60
2017-12-25T07:01:01.481Z,2.83
2017-12-25T07:03:27.599Z,2.30
2017-12-25T07:05:53.806Z,2.80
2017-12-25T07:08:20.746Z,3.03
2017-12-25T07:10:46.973Z,3.22
2017-12-25T07:13:15.382Z,3.12
2017-12-25T07:15:41.504Z,3.28
2017-12-25T07:18:09.263Z,3.30
2017-12-25T07:20:35.397Z,2.92
2017-12-25T07:23:01.533Z,2.95
2017-12-25T07:25:27.704Z,3.08
2017-12-25T07:27:53.898Z,3.15
2017-12-25T07:30:20.751Z,3.08
2017-12-25T07:32:47.651Z,4.20
2017-12-25T07:35:13.787Z,2.90
2017-12-25T07:37:52.280Z,2.72
2017-12-25T07:40:19.149Z,2.87
2017-12-25T07:42:46.028Z,2.72
2017-12-25T07:45:12.172Z,2.92
2017-12-25T07:47:38.329Z,2.72
2017-12-25T07:50:04.486Z,2.65
2017-12-25T07:52:30.606Z,2.78
2017-12-25T07:54:56.724Z,2.80
2017-12-25T07:57:23.638Z,3.40
2017-12-25T07:59:49.764Z,2.42
2017-12-25T08:02:15.936Z,3.00
2017-12-25T08:04:42.057Z,3.90
2017-12-25T08:07:09.892Z,2.95
2017-12-25T08:09:36.051Z,2.35
2017-12-25T08:12:02.197Z,3.00
2017-12-25T08:14:28.391Z,2.95
2017-12-25T08:16:54.513Z,3.15
2017-12-25T08:19:20.688Z,2.78
2017-12-25T08:21:46.844Z,3.25
2017-12-25T08:24:13.713Z,3.30
2017-12-25T08:26:39.930Z,3.70
2017-12-25T08:29:06.174Z,3.50
2017-12-25T08:31:32.398Z,3.15
2017-12-25T08:33:58.527Z,3.20
2017-12-25T08:36:24.636Z,3.50
2017-12-25T08:38:51.576Z,3.40
2017-12-25T08:41:17.723Z,2.90
2017-12-25T08:43:43.896Z,3.10
2017-12-25T08:46:10.757Z,2.90
2017-12-25T08:48:36.905Z,2.55
2017-12-25T08:51:03.048Z,2.62
2017-12-25T08:53:29.169Z,2.90
2017-12-25T08:55:55.298Z,2.75
2017-12-25T08:58:21.444Z,2.75
2017-12-25T09:00:47.586Z,2.33
2017-12-25T09:03:13.795Z,1.90
2017-12-25T09:05:39.932Z,2.12
2017-12-25T09:08:06.819Z,2.30
2017-12-25T09:10:32.931Z,2.35
2017-12-25T09:12:59.108Z,2.00
2017-12-25T09:15:25.255Z,1.90
2017-12-25T09:17:51.360Z,2.40
2017-12-25T09:20:17.506Z,2.12
2017-12-25T09:22:43.615Z,1.90
2017-12-25T09:25:10.478Z,2.00
2017-12-25T09:27:36.663Z,1.77
2017-12-25T09:30:02.885Z,1.62
2017-12-25T09:32:29.704Z,1.50
2017-12-25T09:34:55.835Z,1.62
2017-12-25T09:37:22.054Z,1.85
2017-12-25T09:39:48.974Z,1.65
2017-12-25T09:42:15.096Z,1.50
2017-12-25T09:44:41.216Z,1.60
2017-12-25T09:47:07.335Z,1.12
2017-12-25T09:49:34.272Z,1.37
2017-12-25T09:52:03.079Z,1.10
2017-12-25T09:54:30.528Z,1.52
2017-12-25T09:56:57.026Z,1.77
2017-12-25T09:59:23.189Z,2.10
2017-12-25T10:01:49.322Z,1.67
2017-12-25T10:04:15.511Z,2.10
2017-12-25T10:06:41.645Z,2.08
2017-12-25T10:09:07.876Z,2.03
2017-12-25T10:11:34.001Z,2.10
2017-12-25T10:14:00.129Z,2.47
2017-12-25T10:16:26.231Z,2.80
2017-12-25T10:18:52.354Z,2.35
2017-12-25T10:21:19.296Z,2.47
2017-12-25T10:23:46.217Z,3.20
2017-12-25T10:26:12.368Z,2.80
2017-12-25T10:28:38.517Z,2.90
2017-12-25T10:31:04.669Z,2.67
2017-12-25T10:33:30.880Z,2.65
2017-12-25T10:35:57.056Z,2.60
2017-12-25T10:38:23.912Z,2.10
2017-12-25T10:40:50.908Z,2.70
2017-12-25T10:43:17.020Z,1.90
2017-12-25T10:45:43.127Z,1.90
2017-12-25T10:48:09.245Z,2.10
2017-12-25T10:50:35.359Z,2.30
2017-12-25T10:53:01.479Z,2.30
2017-12-25T10:55:27.727Z,2.40
2017-12-25T10:57:53.876Z,2.30
2017-12-25T11:00:20.022Z,1.80
2017-12-25T11:02:46.141Z,1.60
2017-12-25T11:05:12.272Z,1.50
2017-12-25T11:07:38.388Z,1.85
2017-12-25T11:10:04.533Z,1.85
2017-12-25T11:12:30.645Z,1.77
2017-12-25T11:14:56.830Z,1.58
2017-12-25T11:17:22.952Z,2.00
2017-12-25T11:19:49.263Z,2.28
2017-12-25T11:22:15.581Z,1.98
2017-12-25T11:24:42.946Z,3.12
2017-12-25T11:27:09.046Z,4.18
2017-12-25T11:29:35.333Z,3.33
2017-12-25T11:32:01.765Z,2.90
2017-12-25T11:34:28.112Z,3.20
2017-12-25T11:36:54.543Z,2.90
2017-12-25T11:39:20.846Z,3.03
2017-12-25T11:41:47.168Z,2.92
2017-12-25T11:44:13.476Z,3.95
2017-12-25T11:46:40.065Z,3.58
2017-12-25T11:49:07.145Z,3.50
2017-12-25T11:51:33.508Z,3.42
2017-12-25T11:53:59.921Z,3.42
2017-12-25T11:56:26.949Z,3.08
2017-12-25T11:58:53.805Z,3.00
2017-12-25T12:01:20.648Z,3.28
2017-12-25T12:03:47.744Z,3.87
2017-12-25T12:06:13.974Z,3.75
2017-12-25T12:08:40.112Z,3.35
2017-12-25T12:11:06.227Z,3.37
2017-12-25T12:13:33.104Z,4.18
2017-12-25T12:15:59.233Z,4.53
2017-12-25T12:18:25.369Z,3.85
2017-12-25T12:20:51.523Z,3.55
2017-12-25T12:23:17.651Z,3.25
2017-12-25T12:25:43.756Z,3.95
2017-12-25T12:28:10.636Z,2.97
2017-12-25T12:30:36.745Z,3.40
2017-12-25T12:33:02.908Z,3.53
2017-12-25T12:35:29.780Z,2.80
2017-12-25T12:37:55.879Z,2.67
2017-12-25T12:40:22.838Z,3.10
2017-12-25T12:42:48.950Z,2.65
2017-12-25T12:45:15.053Z,2.60
2017-12-25T12:47:41.143Z,2.40
2017-12-25T12:50:07.249Z,2.55
2017-12-25T12:52:33.524Z,2.25
2017-12-25T12:54:59.820Z,2.50
2017-12-25T12:57:26.115Z,2.60
2017-12-25T12:59:52.414Z,2.87
2017-12-25T13:02:18.735Z,2.72
2017-12-25T13:04:45.028Z,2.58
2017-12-25T13:07:12.151Z,2.60
2017-12-25T13:09:38.477Z,2.83
2017-12-25T13:12:04.846Z,2.70
2017-12-25T13:14:31.175Z,2.70
2017-12-25T13:16:57.540Z,3.03
2017-12-25T13:19:23.889Z,2.35
2017-12-25T13:21:50.272Z,1.65
2017-12-25T13:24:17.321Z,1.73
2017-12-25T13:26:44.384Z,1.50
2017-12-25T13:29:11.234Z,1.80
2017-12-25T13:31:38.073Z,1.62
2017-12-25T13:34:04.182Z,2.00
2017-12-25T13:36:30.275Z,1.70
2017-12-25T13:38:56.378Z,2.80
2017-12-25T13:41:22.484Z,3.35
2017-12-25T13:43:48.609Z,3.47
2017-12-25T13:46:14.761Z,3.65
2017-12-25T13:48:41.052Z,2.00
2017-12-25T13:51:07.339Z,1.90
2017-12-25T13:53:33.592Z,2.20
2017-12-25T13:55:59.722Z,2.03
2017-12-25T13:58:26.003Z,2.70
2017-12-25T14:00:53.053Z,3.10
2017-12-25T14:03:19.916Z,2.67
2017-12-25T14:05:46.763Z,2.70
2017-12-25T14:08:12.882Z,2.50
2017-12-25T14:10:38.976Z,2.42
2017-12-25T14:13:05.076Z,2.30
2017-12-25T14:15:31.224Z,2.50
2017-12-25T14:17:58.261Z,2.80
2017-12-25T14:20:25.113Z,2.40
2017-12-25T14:22:51.215Z,3.70
2017-12-25T14:25:17.371Z,2.60
2017-12-25T14:27:43.483Z,2.47
2017-12-25T14:30:09.614Z,2.78
2017-12-25T14:32:35.894Z,3.05
2017-12-25T14:35:01.998Z,2.50
2017-12-25T14:37:30.429Z,2.60
2017-12-25T14:39:56.868Z,3.00
2017-12-25T14:42:23.184Z,2.75
2017-12-25T14:44:49.512Z,2.80
2017-12-25T14:47:16.546Z,2.62
2017-12-25T14:49:42.893Z,3.28
2017-12-25T14:52:09.225Z,4.57
2017-12-25T14:54:36.288Z,3.87
2017-12-25T14:57:03.342Z,4.15
2017-12-25T14:59:30.397Z,5.70
2017-12-25T15:01:57.340Z,4.45
2017-12-25T15:04:23.452Z,3.40
2017-12-25T15:06:49.584Z,2.25
2017-12-25T15:09:15.885Z,2.58
2017-12-25T15:11:42.168Z,2.78
2017-12-25T15:14:08.472Z,3.12
2017-12-25T15:16:34.864Z,3.20
2017-12-25T15:19:01.144Z,2.67
2017-12-25T15:21:27.459Z,3.47
2017-12-25T15:23:53.804Z,2.65
2017-12-25T15:26:20.256Z,2.67
2017-12-25T15:28:46.581Z,2.80
2017-12-25T15:31:12.888Z,3.20
2017-12-25T15:33:39.209Z,2.87
2017-12-25T15:36:05.610Z,2.47
2017-12-25T15:38:31.917Z,2.55
2017-12-25T15:40:58.236Z,3.00
2017-12-25T15:43:24.547Z,2.90
2017-12-25T15:45:50.879Z,3.70
2017-12-25T15:48:17.208Z,3.30
2017-12-25T15:50:43.551Z,3.15
2017-12-25T15:53:10.007Z,2.95
2017-12-25T15:55:36.316Z,3.30
2017-12-25T15:58:03.360Z,2.83
2017-12-25T16:00:29.645Z,2.78
2017-12-25T16:02:55.963Z,2.45
2017-12-25T16:05:22.296Z,2.30
2017-12-25T16:07:49.433Z,2.37
2017-12-25T16:10:15.838Z,2.28
2017-12-25T16:12:42.154Z,2.20
2017-12-25T16:15:08.521Z,2.80
2017-12-25T16:17:34.702Z,2.20
2017-12-25T16:20:00.997Z,2.42
2017-12-25T16:22:27.492Z,1.80
2017-12-25T16:24:53.608Z,2.22
2017-12-25T16:27:19.928Z,2.15
2017-12-25T16:29:46.128Z,2.00
2017-12-25T16:32:12.604Z,1.90
2017-12-25T16:34:38.715Z,1.75
2017-12-25T16:37:05.150Z,1.95
2017-12-25T16:39:31.297Z,2.80
2017-12-25T16:41:57.662Z,2.30
2017-12-25T16:44:23.759Z,2.72
2017-12-25T16:46:50.106Z,2.45
2017-12-25T16:49:16.944Z,2.30
2017-12-25T16:51:43.308Z,2.10
2017-12-25T16:54:10.387Z,2.42
2017-12-25T16:56:36.517Z,2.00
2017-12-25T16:59:02.672Z,2.30
2017-12-25T17:01:28.984Z,2.03
2017-12-25T17:03:55.105Z,2.22
2017-12-25T17:06:21.387Z,1.90
2017-12-25T17:08:47.795Z,2.47
2017-12-25T17:11:14.072Z,2.20
2017-12-25T17:13:40.235Z,1.90
2017-12-25T17:16:06.520Z,2.05
2017-12-25T17:18:32.653Z,2.30
2017-12-25T17:20:59.706Z,2.50
2017-12-25T17:23:25.822Z,2.80
2017-12-25T17:25:51.930Z,2.70
2017-12-25T17:28:18.062Z,3.20
2017-12-25T17:30:45.312Z,3.85
2017-12-25T17:33:11.604Z,3.72
2017-12-25T17:35:38.508Z,4.28
2017-12-25T17:38:04.656Z,3.00
2017-12-25T17:40:30.806Z,3.83
2017-12-25T17:42:56.988Z,6.43
2017-12-25T17:45:23.297Z,3.87
2017-12-25T17:47:49.648Z,4.57
2017-12-25T17:50:15.973Z,4.28
2017-12-25T17:52:42.541Z,4.65
2017-12-25T17:55:08.861Z,3.30
2017-12-25T17:57:35.201Z,3.40
2017-12-25T18:00:02.289Z,4.03
2017-12-25T18:02:28.536Z,3.10
2017-12-25T18:04:54.870Z,3.10
2017-12-25T18:07:21.184Z,3.00
2017-12-25T18:09:48.215Z,3.17
2017-12-25T18:12:15.268Z,3.50
2017-12-25T18:14:42.312Z,3.72
2017-12-25T18:17:09.161Z,3.70
2017-12-25T18:19:35.281Z,3.95
2017-12-25T18:22:01.476Z,3.00
2017-12-25T18:24:27.845Z,3.10
2017-12-25T18:26:54.168Z,4.22
2017-12-25T18:29:20.647Z,4.15
2017-12-25T18:31:46.761Z,4.00
2017-12-25T18:34:13.060Z,4.20
2017-12-25T18:36:39.415Z,5.05
2017-12-25T18:39:06.475Z,4.60
2017-12-25T18:41:33.524Z,4.62
2017-12-25T18:43:59.923Z,4.55
2017-12-25T18:46:26.240Z,5.22
2017-12-25T18:48:52.544Z,4.90
2017-12-25T18:51:19.602Z,4.80
2017-12-25T18:53:46.454Z,5.25
2017-12-25T18:56:13.309Z,4.35
2017-12-25T18:58:40.210Z,4.80
2017-12-25T19:01:06.368Z,4.60
2017-12-25T19:03:32.477Z,4.40
2017-12-25T19:05:58.577Z,4.80
2017-12-25T19:08:25.428Z,4.97
2017-12-25T19:10:52.273Z,4.10
2017-12-25T19:13:18.397Z,4.45
2017-12-25T19:15:44.581Z,4.45
2017-12-25T19:18:10.684Z,4.70
2017-12-25T19:20:36.823Z,4.10
2017-12-25T19:23:02.929Z,4.15
2017-12-25T19:25:29.047Z,3.30
2017-12-25T19:27:55.227Z,3.72
2017-12-25T19:30:21.329Z,3.78
2017-12-25T19:32:47.436Z,3.47
2017-12-25T19:35:13.600Z,3.50
2017-12-25T19:37:39.751Z,3.03
2017-12-25T19:40:05.865Z,3.15
2017-12-25T19:42:31.968Z,2.65
2017-12-25T19:44:58.822Z,2.60
2017-12-25T19:47:25.748Z,2.80
2017-12-25T19:49:51.875Z,3.20
2017-12-25T19:52:18.208Z,3.35
2017-12-25T19:54:44.320Z,3.40
2017-12-25T19:57:10.460Z,3.40
2017-12-25T19:59:36.583Z,3.40
2017-12-25T20:02:03.436Z,6.75
2017-12-25T20:04:30.273Z,3.30
2017-12-25T20:06:57.108Z,3.62
2017-12-25T20:09:23.218Z,3.28
2017-12-25T20:11:49.353Z,3.20
2017-12-25T20:14:15.472Z,3.37
2017-12-25T20:16:41.765Z,3.03
2017-12-25T20:19:08.532Z,3.60
2017-12-25T20:21:34.781Z,3.50
2017-12-25T20:24:00.865Z,3.50
2017-12-25T20:26:26.968Z,4.07
2017-12-25T20:28:53.288Z,3.70
2017-12-25T20:31:20.556Z,3.80
2017-12-25T20:33:47.016Z,3.20
2017-12-25T20:36:13.368Z,3.65
2017-12-25T20:38:39.732Z,3.45
2017-12-25T20:41:06.057Z,3.50
2017-12-25T20:43:32.364Z,4.40
2017-12-25T20:45:58.813Z,3.62
2017-12-25T20:48:26.470Z,3.20
2017-12-25T20:50:52.742Z,4.00
2017-12-25T20:53:19.841Z,2.87
2017-12-25T20:55:46.321Z,3.70
2017-12-25T20:58:12.640Z,3.90
2017-12-25T21:00:38.953Z,3.97
2017-12-25T21:03:05.275Z,3.67
2017-12-25T21:05:32.323Z,3.30
2017-12-25T21:07:59.567Z,3.05
2017-12-25T21:10:25.683Z,4.30
2017-12-25T21:12:51.820Z,4.22
2017-12-25T21:15:17.989Z,4.65
2017-12-25T21:17:44.292Z,4.90
2017-12-25T21:20:10.700Z,4.25
2017-12-25T21:22:37.786Z,4.85
2017-12-25T21:25:03.897Z,4.37
2017-12-25T21:27:30.924Z,4.90
2017-12-25T21:29:57.266Z,4.57
2017-12-25T21:32:23.560Z,4.20
2017-12-25T21:34:49.968Z,4.95
2017-12-25T21:37:17.445Z,5.75
2017-12-25T21:39:43.793Z,4.57
2017-12-25T21:42:10.116Z,4.85
2017-12-25T21:44:36.819Z,4.62
2017-12-25T21:47:03.155Z,4.95
2017-12-25T21:49:29.473Z,5.50
2017-12-25T21:51:56.492Z,5.53
2017-12-25T21:54:23.025Z,5.65
2017-12-25T21:56:49.351Z,5.25
2017-12-25T21:59:16.488Z,5.18
2017-12-25T22:01:42.835Z,5.80
2017-12-25T22:04:09.139Z,5.57
2017-12-25T22:06:36.204Z,5.47
2017-12-25T22:09:02.546Z,4.82
2017-12-25T22:11:28.872Z,5.35
2017-12-25T22:13:55.220Z,4.68
2017-12-25T22:16:22.310Z,6.00
2017-12-25T22:18:49.348Z,5.07
2017-12-25T22:21:15.659Z,4.97
2017-12-25T22:23:41.967Z,5.95
2017-12-25T22:26:08.453Z,6.30
2017-12-25T22:28:34.788Z,5.75
2017-12-25T22:31:01.113Z,5.60
2017-12-25T22:33:27.592Z,5.40
2017-12-25T22:35:54.669Z,6.10
2017-12-25T22:38:20.977Z,5.43
2017-12-25T22:40:47.362Z,5.43
2017-12-25T22:43:14.428Z,5.78
2017-12-25T22:45:40.934Z,6.10
2017-12-25T22:48:08.067Z,5.75
2017-12-25T22:50:34.418Z,5.25
2017-12-25T22:53:00.870Z,5.97
2017-12-25T22:55:27.158Z,5.75
2017-12-25T22:57:54.218Z,5.72
2017-12-25T23:00:20.656Z,5.30
2017-12-25T23:02:46.893Z,5.72
2017-12-25T23:05:13.956Z,4.20
2017-12-25T23:07:40.953Z,4.90
2017-12-25T23:10:07.245Z,5.20
2017-12-25T23:12:33.387Z,5.97
2017-12-25T23:15:00.300Z,4.70
2017-12-25T23:17:26.464Z,5.12
2017-12-25T23:19:53.339Z,5.57
2017-12-25T23:22:20.238Z,5.00
2017-12-25T23:24:46.578Z,4.85
2017-12-25T23:27:12.777Z,4.93
2017-12-25T23:29:38.937Z,4.78
2017-12-25T23:32:05.261Z,4.32
2017-12-25T23:34:31.605Z,3.83
2017-12-25T23:36:57.731Z,4.78
2017-12-25T23:39:24.831Z,4.55
2017-12-25T23:41:51.876Z,4.43
2017-12-25T23:44:18.000Z,4.90
2017-12-25T23:46:44.131Z,4.55
2017-12-25T23:49:10.980Z,4.60
2017-12-25T23:51:37.834Z,3.85
2017-12-25T23:54:04.718Z,4.62
2017-12-25T23:56:30.836Z,4.10
2017-12-25T23:58:57.767Z,4.15
